createdAt,value
2022-09-15T00:00:34.404Z,2.45
2022-09-15T00:03:02.002Z,2.83
2022-09-15T00:05:29.303Z,2.70
2022-09-15T00:07:56.494Z,2.58
2022-09-15T00:10:23.761Z,2.40
2022-09-15T00:12:51.677Z,2.30
2022-09-15T00:15:19.072Z,2.45
2022-09-15T00:17:49.739Z,2.25
2022-09-15T00:20:17.740Z,2.53
2022-09-15T00:22:45.061Z,1.92
2022-09-15T00:25:12.786Z,2.05
2022-09-15T00:27:40.273Z,2.17
2022-09-15T00:30:08.432Z,2.08
2022-09-15T00:32:35.819Z,2.20
2022-09-15T00:35:04.292Z,1.90
2022-09-15T00:37:31.596Z,1.90
2022-09-15T00:39:58.896Z,2.20
2022-09-15T00:42:26.496Z,2.20
2022-09-15T00:44:55.487Z,2.30
2022-09-15T00:47:25.265Z,2.30
2022-09-15T00:49:59.050Z,2.35
2022-09-15T00:52:41.860Z,2.40
2022-09-15T00:55:29.359Z,2.25
2022-09-15T00:57:58.911Z,2.58
2022-09-15T01:00:28.041Z,2.47
2022-09-15T01:02:56.381Z,2.47
2022-09-15T01:05:29.028Z,2.72
2022-09-15T01:08:01.778Z,2.80
2022-09-15T01:10:30.515Z,3.08
2022-09-15T01:13:01.237Z,2.60
2022-09-15T01:15:33.365Z,2.72
2022-09-15T01:18:00.574Z,2.88
2022-09-15T01:21:03.327Z,2.80
2022-09-15T01:23:48.705Z,2.88
2022-09-15T01:26:15.986Z,2.35
2022-09-15T01:29:02.048Z,2.70
2022-09-15T01:31:30.903Z,2.40
2022-09-15T01:33:58.226Z,1.90
2022-09-15T01:36:31.681Z,1.92
2022-09-15T01:39:03.265Z,1.50
2022-09-15T01:41:34.587Z,1.90
2022-09-15T01:44:10.975Z,1.50
2022-09-15T01:46:40.712Z,1.63
2022-09-15T01:49:10.399Z,1.70
2022-09-15T01:51:38.495Z,1.65
2022-09-15T01:54:06.972Z,1.45
2022-09-15T01:56:34.175Z,1.63
2022-09-15T01:59:01.481Z,1.60
2022-09-15T02:01:44.762Z,1.55
2022-09-15T02:04:12.103Z,1.35
2022-09-15T02:06:45.048Z,1.40
2022-09-15T02:09:14.652Z,1.50
2022-09-15T02:11:53.022Z,1.48
2022-09-15T02:14:36.488Z,1.38
2022-09-15T02:17:05.604Z,1.45
2022-09-15T02:19:35.170Z,1.45
2022-09-15T02:22:08.115Z,1.58
2022-09-15T02:24:44.167Z,1.30
2022-09-15T02:27:15.701Z,1.23
2022-09-15T02:29:44.617Z,1.42
2022-09-15T02:32:15.826Z,1.50
2022-09-15T02:34:45.313Z,1.30
2022-09-15T02:37:13.216Z,1.38
2022-09-15T02:39:43.205Z,1.30
2022-09-15T02:42:10.851Z,1.50
2022-09-15T02:44:38.118Z,1.17
2022-09-15T02:47:05.741Z,1.50
2022-09-15T02:49:32.978Z,1.30
2022-09-15T02:52:00.223Z,1.50
2022-09-15T02:54:27.463Z,1.70
2022-09-15T02:56:56.110Z,1.55
2022-09-15T02:59:23.359Z,1.30
2022-09-15T03:01:51.992Z,1.40
2022-09-15T03:04:19.526Z,1.50
2022-09-15T03:06:46.837Z,1.25
2022-09-15T03:09:14.005Z,1.30
2022-09-15T03:11:41.189Z,1.20
2022-09-15T03:14:08.467Z,1.27
2022-09-15T03:16:36.273Z,1.38
2022-09-15T03:19:04.217Z,1.08
2022-09-15T03:21:31.660Z,1.20
2022-09-15T03:23:59.201Z,1.27
2022-09-15T03:26:26.557Z,1.40
2022-09-15T03:28:53.873Z,1.58
2022-09-15T03:31:21.616Z,1.42
2022-09-15T03:33:49.851Z,1.65
2022-09-15T03:36:17.108Z,1.50
2022-09-15T03:38:44.380Z,1.50
2022-09-15T03:41:13.089Z,1.50
2022-09-15T03:43:40.306Z,1.70
2022-09-15T03:46:08.551Z,1.50
2022-09-15T03:48:36.513Z,1.40
2022-09-15T03:51:07.738Z,1.75
2022-09-15T03:53:36.076Z,1.80
2022-09-15T03:56:12.651Z,1.50
2022-09-15T03:58:40.157Z,1.67
2022-09-15T04:01:07.641Z,1.70
2022-09-15T04:03:40.240Z,1.50
2022-09-15T04:06:10.683Z,1.50
2022-09-15T04:08:37.985Z,1.58
2022-09-15T04:11:05.977Z,1.60
2022-09-15T04:13:33.426Z,1.60
2022-09-15T04:16:04.897Z,1.77
2022-09-15T04:18:33.240Z,1.50
2022-09-15T04:21:00.983Z,1.70
2022-09-15T04:23:28.284Z,1.52
2022-09-15T04:25:59.557Z,1.50
2022-09-15T04:28:27.961Z,1.70
2022-09-15T04:31:03.130Z,1.23
2022-09-15T04:33:30.472Z,1.80
2022-09-15T04:36:01.972Z,1.38
2022-09-15T04:38:29.618Z,1.50
2022-09-15T04:40:57.436Z,1.50
2022-09-15T04:43:24.979Z,1.52
2022-09-15T04:45:52.660Z,1.17
2022-09-15T04:48:19.925Z,1.23
2022-09-15T04:50:47.195Z,1.35
2022-09-15T04:53:14.930Z,1.30
2022-09-15T04:55:42.555Z,1.50
2022-09-15T04:58:11.098Z,1.60
2022-09-15T05:00:42.926Z,1.45
2022-09-15T05:03:11.139Z,1.20
2022-09-15T05:05:38.802Z,1.30
2022-09-15T05:08:06.042Z,1.50
2022-09-15T05:10:33.424Z,1.60
2022-09-15T05:13:01.009Z,1.83
2022-09-15T05:15:28.185Z,1.45
2022-09-15T05:17:55.484Z,1.50
2022-09-15T05:20:22.744Z,1.42
2022-09-15T05:22:49.909Z,1.40
2022-09-15T05:25:17.248Z,1.50
2022-09-15T05:27:44.761Z,1.27
2022-09-15T05:32:59.444Z,1.27
2022-09-15T05:35:26.753Z,1.42
2022-09-15T05:37:54.139Z,1.40
2022-09-15T05:40:22.286Z,1.20
2022-09-15T05:42:49.628Z,1.30
2022-09-15T05:45:17.455Z,1.27
2022-09-15T05:47:44.748Z,1.50
2022-09-15T05:50:12.041Z,1.02
2022-09-15T05:52:39.463Z,0.98
2022-09-15T05:55:06.928Z,1.27
2022-09-15T05:57:34.258Z,0.90
2022-09-15T06:00:01.567Z,0.90
2022-09-15T06:02:28.843Z,1.10
2022-09-15T06:04:56.236Z,1.10
2022-09-15T06:07:23.838Z,0.90
2022-09-15T06:09:51.075Z,1.25
2022-09-15T06:12:19.104Z,0.85
2022-09-15T06:14:50.447Z,1.20
2022-09-15T06:17:18.219Z,1.10
2022-09-15T06:19:45.826Z,1.00
2022-09-15T06:22:13.537Z,1.10
2022-09-15T06:24:40.712Z,1.05
2022-09-15T06:27:08.098Z,1.20
2022-09-15T06:29:37.070Z,1.20
2022-09-15T06:32:05.398Z,1.38
2022-09-15T06:34:33.321Z,1.50
2022-09-15T06:37:00.711Z,1.48
2022-09-15T06:39:28.217Z,1.30
2022-09-15T06:42:04.846Z,1.33
2022-09-15T06:44:33.257Z,1.27
2022-09-15T06:47:00.539Z,1.30
2022-09-15T06:49:27.823Z,1.50
2022-09-15T06:51:56.759Z,1.02
2022-09-15T06:54:24.091Z,1.50
2022-09-15T06:56:51.388Z,1.45
2022-09-15T06:59:18.716Z,1.50
2022-09-15T07:01:46.160Z,1.30
2022-09-15T07:04:13.613Z,1.45
2022-09-15T07:06:40.915Z,1.20
2022-09-15T07:09:08.174Z,1.45
2022-09-15T07:11:35.799Z,1.50
2022-09-15T07:14:03.498Z,1.30
2022-09-15T07:16:30.952Z,1.25
2022-09-15T07:19:01.209Z,1.40
2022-09-15T07:21:28.667Z,1.27
2022-09-15T07:23:57.805Z,1.20
2022-09-15T07:26:26.402Z,1.10
2022-09-15T07:29:01.155Z,1.25
2022-09-15T07:31:29.810Z,1.40
2022-09-15T07:33:57.379Z,1.23
2022-09-15T07:36:24.680Z,1.10
2022-09-15T07:38:52.270Z,0.80
2022-09-15T07:41:20.845Z,1.00
2022-09-15T07:43:52.274Z,0.90
2022-09-15T07:46:20.153Z,0.90
2022-09-15T07:48:48.146Z,1.00
2022-09-15T07:51:16.197Z,0.98
2022-09-15T07:53:44.005Z,0.93
2022-09-15T07:56:11.438Z,0.70
2022-09-15T07:58:38.812Z,0.80
2022-09-15T08:01:07.151Z,0.70
2022-09-15T08:03:34.592Z,0.75
2022-09-15T08:06:02.402Z,0.70
2022-09-15T08:08:30.057Z,0.80
2022-09-15T08:10:57.650Z,0.70
2022-09-15T08:13:25.077Z,0.75
2022-09-15T08:15:52.546Z,0.80
2022-09-15T08:18:20.364Z,0.70
2022-09-15T08:20:47.552Z,0.80
2022-09-15T08:23:14.801Z,0.80
2022-09-15T08:25:41.997Z,0.80
2022-09-15T08:28:09.252Z,0.90
2022-09-15T08:30:36.645Z,0.43
2022-09-15T08:33:03.922Z,0.95
2022-09-15T08:35:32.880Z,0.88
2022-09-15T08:38:00.202Z,0.80
2022-09-15T08:40:31.555Z,0.80
2022-09-15T08:43:00.280Z,0.60
2022-09-15T08:45:30.123Z,0.68
2022-09-15T08:48:00.117Z,0.80
2022-09-15T08:50:28.193Z,0.80
2022-09-15T08:52:58.577Z,0.80
2022-09-15T08:55:34.665Z,0.80
2022-09-15T08:58:01.931Z,0.70
2022-09-15T09:00:29.933Z,1.00
2022-09-15T09:03:10.740Z,0.70
2022-09-15T09:05:46.964Z,0.77
2022-09-15T09:08:33.005Z,0.90
2022-09-15T09:11:23.419Z,0.80
2022-09-15T09:14:11.584Z,0.75
2022-09-15T09:17:03.542Z,0.98
2022-09-15T09:19:49.600Z,1.00
2022-09-15T09:22:18.603Z,0.90
2022-09-15T09:24:47.213Z,0.73
2022-09-15T09:27:18.431Z,0.70
2022-09-15T09:29:50.231Z,0.82
2022-09-15T09:32:25.652Z,0.80
2022-09-15T09:35:01.995Z,0.75
2022-09-15T09:37:29.416Z,0.90
2022-09-15T09:39:56.785Z,0.63
2022-09-15T09:42:30.021Z,0.90
2022-09-15T09:44:57.425Z,0.88
2022-09-15T09:47:31.674Z,1.10
2022-09-15T09:49:59.934Z,1.13
2022-09-15T09:52:34.199Z,0.90
2022-09-15T09:55:16.824Z,0.98
2022-09-15T09:57:44.133Z,0.90
2022-09-15T10:00:29.950Z,0.95
2022-09-15T10:02:57.192Z,1.00
2022-09-15T10:05:25.464Z,1.17
2022-09-15T10:07:52.779Z,1.10
2022-09-15T10:10:32.391Z,0.93
2022-09-15T10:13:02.894Z,1.00
2022-09-15T10:15:34.783Z,0.93
2022-09-15T10:18:02.290Z,1.10
2022-09-15T10:20:32.916Z,0.93
2022-09-15T10:23:23.688Z,1.25
2022-09-15T10:25:59.095Z,1.27
2022-09-15T10:28:28.072Z,1.20
2022-09-15T10:30:59.983Z,1.40
2022-09-15T10:33:28.637Z,1.45
2022-09-15T10:36:00.786Z,1.33
2022-09-15T10:38:33.688Z,1.67
2022-09-15T10:41:11.618Z,1.40
2022-09-15T10:43:48.266Z,1.52
2022-09-15T10:46:27.840Z,1.73
2022-09-15T10:49:02.642Z,1.30
2022-09-15T10:51:36.156Z,1.65
2022-09-15T10:54:25.323Z,1.90
2022-09-15T10:57:12.762Z,1.60
2022-09-15T10:59:45.790Z,1.60
2022-09-15T11:02:16.196Z,1.40
2022-09-15T11:04:58.825Z,1.48
2022-09-15T11:07:33.388Z,1.70
2022-09-15T11:10:09.841Z,1.40
2022-09-15T11:12:46.266Z,1.42
2022-09-15T11:15:25.711Z,1.50
2022-09-15T11:18:05.275Z,1.35
2022-09-15T11:20:39.456Z,1.42
2022-09-15T11:23:12.700Z,1.25
2022-09-15T11:25:42.822Z,1.42
2022-09-15T11:28:19.394Z,1.20
2022-09-15T11:30:53.465Z,1.33
2022-09-15T11:33:28.172Z,1.40
2022-09-15T11:36:01.970Z,1.60
2022-09-15T11:38:29.183Z,1.60
2022-09-15T11:41:15.416Z,1.77
2022-09-15T11:43:46.384Z,1.63
2022-09-15T11:46:21.866Z,1.70
2022-09-15T11:48:54.643Z,2.13
2022-09-15T11:51:24.178Z,1.90
2022-09-15T11:53:55.193Z,1.77
2022-09-15T11:56:25.681Z,1.60
2022-09-15T11:59:13.204Z,1.90
2022-09-15T12:01:57.472Z,1.92
2022-09-15T12:04:35.878Z,1.70
2022-09-15T12:07:03.103Z,1.40
2022-09-15T12:09:30.589Z,1.60
2022-09-15T12:11:59.239Z,1.40
2022-09-15T12:14:37.022Z,1.42
2022-09-15T12:17:11.412Z,1.30
2022-09-15T12:19:44.501Z,1.33
2022-09-15T12:22:38.095Z,1.38
2022-09-15T12:25:19.977Z,1.42
2022-09-15T12:28:06.763Z,1.10
2022-09-15T12:30:41.625Z,1.20
2022-09-15T12:33:27.805Z,1.30
2022-09-15T12:35:55.259Z,1.20
2022-09-15T12:38:23.339Z,1.30
2022-09-15T12:40:58.903Z,1.20
2022-09-15T12:43:32.168Z,1.17
2022-09-15T12:46:01.170Z,1.40
2022-09-15T12:48:31.257Z,1.60
2022-09-15T12:51:06.450Z,1.20
2022-09-15T12:53:37.352Z,1.35
2022-09-15T12:56:08.766Z,1.20
2022-09-15T12:58:45.873Z,1.30
2022-09-15T13:01:19.611Z,1.20
2022-09-15T13:03:49.040Z,1.50
2022-09-15T13:06:16.423Z,1.67
2022-09-15T13:08:46.662Z,1.10
2022-09-15T13:11:20.114Z,1.55
2022-09-15T13:13:55.600Z,1.65
2022-09-15T13:16:27.267Z,1.75
2022-09-15T13:19:04.309Z,1.20
2022-09-15T13:21:31.858Z,1.92
2022-09-15T13:24:00.139Z,0.40
2022-09-15T13:26:28.108Z,0.80
2022-09-15T13:28:57.625Z,0.40
2022-09-15T13:31:34.448Z,0.40
2022-09-15T13:40:22.332Z,1.00
2022-09-15T13:43:16.073Z,1.10
2022-09-15T13:45:51.490Z,7.30
2022-09-15T13:48:18.696Z,6.97
2022-09-15T13:50:57.730Z,11.98
2022-09-15T13:53:25.561Z,5.80
2022-09-15T13:55:57.347Z,6.97
2022-09-15T14:01:14.404Z,3.50
2022-09-15T14:03:41.973Z,3.13
2022-09-15T14:06:17.730Z,4.88
2022-09-15T14:08:46.474Z,12.15
2022-09-15T14:11:18.076Z,10.57
2022-09-15T14:13:47.614Z,12.68
2022-09-15T14:16:23.647Z,18.45
2022-09-15T14:18:52.073Z,17.10
2022-09-15T14:21:23.709Z,14.68
2022-09-15T14:23:52.196Z,13.00
2022-09-15T14:26:21.105Z,14.68
2022-09-15T14:28:49.996Z,11.80
2022-09-15T14:31:17.702Z,10.63
2022-09-15T14:33:47.065Z,11.83
2022-09-15T14:36:23.587Z,11.03
2022-09-15T14:39:09.735Z,9.40
2022-09-15T14:41:37.164Z,9.13
2022-09-15T14:47:16.401Z,8.77
2022-09-15T14:49:43.649Z,8.53
2022-09-15T14:52:29.418Z,9.30
2022-09-15T14:54:59.165Z,8.47
2022-09-15T14:57:31.045Z,9.33
2022-09-15T15:00:00.945Z,9.43
2022-09-15T15:02:36.885Z,8.75
2022-09-15T15:05:11.332Z,8.07
2022-09-15T15:07:39.870Z,6.80
2022-09-15T15:10:12.291Z,6.13
2022-09-15T15:12:59.553Z,6.93
2022-09-15T15:15:26.976Z,6.50
2022-09-15T15:17:54.950Z,4.85
2022-09-15T15:20:31.391Z,4.75
2022-09-15T15:23:11.647Z,5.68
2022-09-15T15:25:39.108Z,5.25
2022-09-15T15:28:06.689Z,5.00
2022-09-15T15:30:36.166Z,5.40
2022-09-15T15:33:07.822Z,6.00
2022-09-15T15:35:35.859Z,5.93
2022-09-15T15:38:25.581Z,5.85
2022-09-15T15:41:00.924Z,4.90
2022-09-15T15:43:29.264Z,4.90
2022-09-15T15:45:58.666Z,5.20
2022-09-15T15:48:26.846Z,5.75
2022-09-15T15:50:55.144Z,6.32
2022-09-15T15:53:22.755Z,6.10
2022-09-15T15:55:50.122Z,6.68
2022-09-15T15:58:17.685Z,5.30
2022-09-15T16:00:46.628Z,5.50
2022-09-15T16:03:14.718Z,5.13
2022-09-15T16:05:44.405Z,6.30
2022-09-15T16:08:33.127Z,7.35
2022-09-15T16:11:01.733Z,5.13
2022-09-15T16:13:29.253Z,5.03
2022-09-15T16:15:58.315Z,5.93
2022-09-15T16:18:25.954Z,6.00
2022-09-15T16:20:53.955Z,5.50
2022-09-15T16:23:22.847Z,6.03
2022-09-15T16:25:54.360Z,5.28
2022-09-15T16:28:21.588Z,5.43
2022-09-15T16:30:48.966Z,5.07
2022-09-15T16:33:16.960Z,5.43
2022-09-15T16:35:51.497Z,5.00
2022-09-15T16:38:25.502Z,4.57
2022-09-15T16:40:53.368Z,3.45
2022-09-15T16:43:21.628Z,3.47
2022-09-15T16:45:49.723Z,2.90
2022-09-15T16:48:17.314Z,3.08
2022-09-15T16:50:56.020Z,3.20
2022-09-15T16:53:32.755Z,3.45
2022-09-15T16:56:00.048Z,3.33
2022-09-15T16:58:28.114Z,3.20
2022-09-15T17:00:56.084Z,3.13
2022-09-15T17:03:24.102Z,2.55
2022-09-15T17:05:52.418Z,2.58
2022-09-15T17:08:24.081Z,2.35
2022-09-15T17:10:52.976Z,2.80
2022-09-15T17:13:23.059Z,2.90
2022-09-15T17:15:54.210Z,2.72
2022-09-15T17:18:22.161Z,2.70
2022-09-15T17:20:50.859Z,2.67
2022-09-15T17:23:21.452Z,3.22
2022-09-15T17:25:52.028Z,3.10
2022-09-15T17:28:23.320Z,3.60
2022-09-15T17:30:51.968Z,3.05
2022-09-15T17:33:20.211Z,3.03
2022-09-15T17:35:47.737Z,3.30
2022-09-15T17:38:15.086Z,3.80
2022-09-15T17:40:42.528Z,3.15
2022-09-15T17:43:15.320Z,3.50
2022-09-15T17:45:42.653Z,3.92
2022-09-15T17:48:09.932Z,3.55
2022-09-15T17:50:38.261Z,3.97
2022-09-15T17:53:16.002Z,3.60
2022-09-15T17:55:43.728Z,3.92
2022-09-15T17:58:11.509Z,3.65
2022-09-15T18:00:39.712Z,4.28
2022-09-15T18:03:30.605Z,3.95
2022-09-15T18:05:59.093Z,4.03
2022-09-15T18:08:26.633Z,3.90
2022-09-15T18:10:54.317Z,4.00
2022-09-15T18:13:27.219Z,4.47
2022-09-15T18:15:54.810Z,4.38
2022-09-15T18:18:25.544Z,4.15
2022-09-15T18:20:53.699Z,5.07
2022-09-15T18:23:25.017Z,5.20
2022-09-15T18:25:52.789Z,5.40
2022-09-15T18:28:20.030Z,5.35
2022-09-15T18:30:48.469Z,4.78
2022-09-15T18:33:20.382Z,4.70
2022-09-15T18:35:48.419Z,4.68
2022-09-15T18:38:16.345Z,4.80
2022-09-15T18:40:51.119Z,5.20
2022-09-15T18:43:18.409Z,4.73
2022-09-15T18:45:45.896Z,4.90
2022-09-15T18:48:13.556Z,4.30
2022-09-15T18:50:41.331Z,4.50
2022-09-15T18:53:08.601Z,4.37
2022-09-15T18:55:35.959Z,4.28
2022-09-15T18:58:03.295Z,4.13
2022-09-15T19:00:31.759Z,4.47
2022-09-15T19:03:00.222Z,4.73
2022-09-15T19:05:28.391Z,4.53
2022-09-15T19:07:55.830Z,4.43
2022-09-15T19:10:23.719Z,4.70
2022-09-15T19:12:51.063Z,4.53
2022-09-15T19:15:18.436Z,4.93
2022-09-15T19:17:45.966Z,4.90
2022-09-15T19:20:14.755Z,4.97
2022-09-15T19:22:42.632Z,4.30
2022-09-15T19:25:10.942Z,5.40
2022-09-15T19:27:38.789Z,4.85
2022-09-15T19:30:06.720Z,5.17
2022-09-15T19:32:34.241Z,6.22
2022-09-15T19:35:01.518Z,5.28
2022-09-15T19:37:28.897Z,6.27
2022-09-15T19:39:56.395Z,6.53
2022-09-15T19:42:23.696Z,4.87
2022-09-15T19:44:50.943Z,5.05
2022-09-15T19:47:18.335Z,5.00
2022-09-15T19:49:45.662Z,4.53
2022-09-15T19:52:12.949Z,4.47
2022-09-15T19:54:40.358Z,4.10
2022-09-15T19:57:07.677Z,5.15
2022-09-15T19:59:35.159Z,5.20
2022-09-15T20:02:02.485Z,4.60
2022-09-15T20:04:29.819Z,4.50
2022-09-15T20:06:57.257Z,5.07
2022-09-15T20:09:24.767Z,4.70
2022-09-15T20:11:51.996Z,4.10
2022-09-15T20:14:19.192Z,4.40
2022-09-15T20:16:46.498Z,4.55
2022-09-15T20:19:13.850Z,4.53
2022-09-15T20:21:56.855Z,4.30
2022-09-15T20:24:24.811Z,4.83
2022-09-15T20:26:52.275Z,4.90
2022-09-15T20:29:20.008Z,4.33
2022-09-15T20:31:47.914Z,5.00
2022-09-15T20:34:15.211Z,4.63
2022-09-15T20:36:43.713Z,4.60
2022-09-15T20:39:13.297Z,4.70
2022-09-15T20:41:41.320Z,4.10
2022-09-15T20:44:11.911Z,4.93
2022-09-15T20:46:39.111Z,4.37
2022-09-15T20:49:06.991Z,4.23
2022-09-15T20:51:34.359Z,4.90
2022-09-15T20:54:03.598Z,4.67
2022-09-15T20:56:31.782Z,4.57
2022-09-15T20:58:59.777Z,4.80
2022-09-15T21:01:28.476Z,5.07
2022-09-15T21:03:56.571Z,5.10
2022-09-15T21:06:25.435Z,5.63
2022-09-15T21:08:53.479Z,4.70
2022-09-15T21:11:21.731Z,4.70
2022-09-15T21:13:49.389Z,4.97
2022-09-15T21:16:21.151Z,5.30
2022-09-15T21:18:48.889Z,4.77
2022-09-15T21:21:26.623Z,5.10
2022-09-15T21:23:58.745Z,4.80
2022-09-15T21:26:27.125Z,4.93
2022-09-15T21:28:55.248Z,5.13
2022-09-15T21:31:24.283Z,5.60
2022-09-15T21:33:52.501Z,5.17
2022-09-15T21:36:22.235Z,5.00
2022-09-15T21:38:50.481Z,4.93
2022-09-15T21:41:18.909Z,5.23
2022-09-15T21:43:50.184Z,5.27
2022-09-15T21:46:18.937Z,5.53
2022-09-15T21:48:49.988Z,5.27
2022-09-15T21:51:23.468Z,5.57
2022-09-15T21:53:53.189Z,6.00
2022-09-15T21:56:20.632Z,6.20
2022-09-15T21:58:47.928Z,6.30
2022-09-15T22:01:18.966Z,6.50
2022-09-15T22:03:51.746Z,6.50
2022-09-15T22:06:19.660Z,6.30
2022-09-15T22:08:47.193Z,6.07
2022-09-15T22:11:14.962Z,6.00
2022-09-15T22:13:43.655Z,6.37
2022-09-15T22:16:13.278Z,6.67
2022-09-15T22:18:41.213Z,6.73
2022-09-15T22:21:11.713Z,6.57
2022-09-15T22:23:39.165Z,6.90
2022-09-15T22:26:11.670Z,6.60
2022-09-15T22:28:39.094Z,6.67
2022-09-15T22:31:07.698Z,6.17
2022-09-15T22:33:35.370Z,6.40
2022-09-15T22:36:02.626Z,6.60
2022-09-15T22:38:31.152Z,6.93
2022-09-15T22:41:03.677Z,6.87
2022-09-15T22:43:30.874Z,7.27
2022-09-15T22:45:58.155Z,7.23
2022-09-15T22:48:25.765Z,7.17
2022-09-15T22:50:52.961Z,7.27
2022-09-15T22:53:20.260Z,6.90
2022-09-15T22:55:47.444Z,6.67
2022-09-15T22:58:14.722Z,5.80
2022-09-15T23:00:42.137Z,6.00
2022-09-15T23:03:09.909Z,6.27
2022-09-15T23:05:37.110Z,6.47
2022-09-15T23:08:04.590Z,6.53
2022-09-15T23:10:32.796Z,6.73
2022-09-15T23:13:00.558Z,6.97
2022-09-15T23:15:28.871Z,6.73
2022-09-15T23:17:56.145Z,7.20
2022-09-15T23:20:23.405Z,7.13
2022-09-15T23:22:50.678Z,7.10
2022-09-15T23:25:18.346Z,5.47
2022-09-15T23:27:45.546Z,5.70
2022-09-15T23:30:13.040Z,6.27
2022-09-15T23:32:40.435Z,5.50
2022-09-15T23:35:08.110Z,5.70
2022-09-15T23:37:35.375Z,5.40
2022-09-15T23:40:02.746Z,5.67
2022-09-15T23:42:30.106Z,5.47
2022-09-15T23:44:58.007Z,5.60
2022-09-15T23:47:25.241Z,6.00
2022-09-15T23:49:52.515Z,6.63
2022-09-15T23:52:19.724Z,7.30
2022-09-15T23:54:47.256Z,7.27
2022-09-15T23:57:14.510Z,7.70
2022-09-15T23:59:41.699Z,7.80
